Time;durP1;ratioP1;P1;durP2;ratioP2;P2;SDS_P1;SDS_P2;PMS_P1;PMS_P2;Temp;Humidity;BMP_temperature;BMP_pressure;BME280_temperature;BME280_humidity;BME280_pressure;Samples;Min_cycle;Max_cycle;Signal;HPM_P1;HPM_P2
2023/07/21 00:00:56;;;;;;;5.77;4.00;;;;;20.20;96610.00;;;;4964930;28;20204;-73
2023/07/21 00:03:48;;;;;;;8.13;4.67;;;;;20.40;96612.00;;;;4962567;28;20223;-73
2023/07/21 00:06:37;;;;;;;4.47;3.83;;;;;20.40;96601.00;;;;4971601;28;20203;-73
2023/07/21 00:09:26;;;;;;;6.57;4.03;;;;;20.30;96602.00;;;;4970353;28;20231;-73
2023/07/21 00:12:17;;;;;;;7.17;3.70;;;;;20.10;96601.00;;;;4961673;28;20281;-74
2023/07/21 00:15:08;;;;;;;5.63;3.80;;;;;20.20;96598.00;;;;4968906;28;20238;-74
2023/07/21 00:17:57;;;;;;;7.57;3.83;;;;;20.50;96618.00;;;;4961423;28;20210;-74
2023/07/21 00:20:46;;;;;;;5.07;3.57;;;;;20.30;96623.00;;;;4966365;28;20204;-74
2023/07/21 00:23:36;;;;;;;10.13;4.30;;;;;20.10;96617.00;;;;4967148;28;20608;-73
2023/07/21 00:26:25;;;;;;;7.10;4.00;;;;;20.30;96599.00;;;;4960900;28;20208;-73
2023/07/21 00:29:15;;;;;;;6.13;3.93;;;;;20.20;96618.00;;;;4968735;28;20282;-73
2023/07/21 00:32:05;;;;;;;4.00;3.30;;;;;20.20;96609.00;;;;4962563;28;20204;-73
2023/07/21 00:34:54;;;;;;;6.33;4.50;;;;;20.30;96613.00;;;;4962080;28;20934;-74
2023/07/21 00:37:43;;;;;;;4.93;4.13;;;;;20.40;96608.00;;;;4969222;28;20203;-73
2023/07/21 00:40:35;;;;;;;5.50;3.17;;;;;20.40;96608.00;;;;4967563;28;20218;-74
2023/07/21 00:43:25;;;;;;;7.83;4.33;;;;;20.50;96614.00;;;;4964412;28;20580;-73
2023/07/21 00:46:15;;;;;;;12.07;4.20;;;;;20.20;96604.00;;;;4964396;28;20212;-73
2023/07/21 00:49:05;;;;;;;7.43;3.67;;;;;20.20;96604.00;;;;4960115;28;20219;-73
2023/07/21 00:51:54;;;;;;;6.37;3.47;;;;;20.30;96613.00;;;;4960550;28;20225;-73
2023/07/21 00:54:43;;;;;;;6.70;4.13;;;;;20.20;96619.00;;;;4961306;28;20226;-73
2023/07/21 00:57:32;;;;;;;7.73;4.23;;;;;20.20;96616.00;;;;4966929;28;20206;-74
2023/07/21 01:00:21;;;;;;;13.27;4.30;;;;;20.00;96621.00;;;;4954192;28;20234;-74
2023/07/21 01:03:13;;;;;;;7.73;4.10;;;;;20.10;96621.00;;;;4967888;28;20207;-73
2023/07/21 01:06:03;;;;;;;5.63;3.87;;;;;20.20;96620.00;;;;4958532;28;20707;-73
2023/07/21 01:08:54;;;;;;;6.00;4.00;;;;;19.90;96630.00;;;;4970256;28;20215;-73
2023/07/21 01:11:43;;;;;;;6.53;4.07;;;;;19.90;96621.00;;;;4966920;28;20210;-73
2023/07/21 01:14:32;;;;;;;7.80;3.80;;;;;19.90;96632.00;;;;4957743;28;20230;-73
2023/07/21 01:17:21;;;;;;;5.60;3.50;;;;;20.00;96623.00;;;;4965162;28;20215;-73
2023/07/21 01:20:15;;;;;;;4.93;4.13;;;;;20.10;96620.00;;;;4966944;28;20218;-72
2023/07/21 01:23:08;;;;;;;10.23;4.83;;;;;20.30;96622.00;;;;4961371;28;20211;-72
2023/07/21 01:25:59;;;;;;;6.63;4.60;;;;;20.20;96618.00;;;;4956945;28;20204;-72
2023/07/21 01:28:48;;;;;;;9.83;6.07;;;;;20.20;96615.00;;;;4970033;28;20236;-72
2023/07/21 01:31:38;;;;;;;8.73;4.27;;;;;19.70;96606.00;;;;4958914;28;20588;-73
2023/07/21 01:34:27;;;;;;;7.33;4.50;;;;;19.70;96605.00;;;;4962994;28;20238;-73
2023/07/21 01:37:17;;;;;;;7.67;4.33;;;;;19.90;96589.00;;;;4966965;28;20211;-73
2023/07/21 01:40:10;;;;;;;10.07;4.70;;;;;20.10;96584.00;;;;4955962;28;20219;-73
2023/07/21 01:43:00;;;;;;;5.87;3.80;;;;;20.10;96584.00;;;;4962464;28;20223;-73
2023/07/21 01:45:49;;;;;;;6.90;4.73;;;;;20.20;96561.00;;;;4966391;28;20200;-73
2023/07/21 01:48:38;;;;;;;5.77;4.53;;;;;20.20;96568.00;;;;4963709;28;20200;-73
2023/07/21 01:51:28;;;;;;;5.83;4.33;;;;;20.20;96556.00;;;;4964549;28;20678;-73
2023/07/21 01:54:25;;;;;;;5.07;4.57;;;;;20.30;96559.00;;;;4961225;28;20231;-73
2023/07/21 01:57:18;;;;;;;6.17;4.40;;;;;19.80;96560.00;;;;4964737;28;20214;-73
2023/07/21 02:00:12;;;;;;;9.17;4.63;;;;;19.10;96545.00;;;;4957740;28;20207;-72
2023/07/21 02:03:02;;;;;;;12.80;5.30;;;;;19.00;96547.00;;;;4960985;28;20203;-72
2023/07/21 02:05:51;;;;;;;6.40;4.43;;;;;19.00;96554.00;;;;4959922;28;20289;-71
2023/07/21 02:08:40;;;;;;;7.93;4.77;;;;;19.40;96547.00;;;;4968511;28;20210;-71
2023/07/21 02:11:30;;;;;;;8.00;4.70;;;;;19.40;96555.00;;;;4957131;28;20216;-71
2023/07/21 02:14:19;;;;;;;6.97;4.87;;;;;19.10;96556.00;;;;4962858;28;20236;-72
2023/07/21 02:17:09;;;;;;;6.00;5.03;;;;;19.40;96574.00;;;;4968422;28;20218;-72
2023/07/21 02:19:58;;;;;;;8.67;4.70;;;;;19.50;96562.00;;;;4967371;28;20519;-72
2023/07/21 02:22:47;;;;;;;7.47;4.30;;;;;19.70;96552.00;;;;4962092;28;20209;-73
2023/07/21 02:25:36;;;;;;;10.07;5.80;;;;;19.70;96547.00;;;;4967859;28;20219;-73
2023/07/21 02:28:25;;;;;;;6.40;4.90;;;;;19.80;96558.00;;;;4968920;28;20207;-72
2023/07/21 02:31:14;;;;;;;9.33;4.73;;;;;19.80;96556.00;;;;4964923;28;20227;-73
2023/07/21 02:34:05;;;;;;;7.23;4.53;;;;;20.00;96557.00;;;;4967397;28;20223;-73
2023/07/21 02:36:54;;;;;;;6.60;5.93;;;;;20.00;96552.00;;;;4966718;28;20752;-73
2023/07/21 02:39:43;;;;;;;8.20;4.37;;;;;19.90;96540.00;;;;4965311;28;20212;-73
2023/07/21 02:42:32;;;;;;;7.23;4.87;;;;;19.80;96533.00;;;;4970954;28;20195;-73
2023/07/21 02:45:22;;;;;;;4.80;4.33;;;;;19.80;96539.00;;;;4964860;28;20242;-73
2023/07/21 02:48:11;;;;;;;7.60;5.13;;;;;19.90;96544.00;;;;4966997;28;20207;-72
2023/07/21 02:51:02;;;;;;;7.37;4.50;;;;;19.60;96544.00;;;;4966827;28;20238;-73
2023/07/21 02:53:52;;;;;;;5.63;4.33;;;;;19.60;96543.00;;;;4970765;28;20216;-73
2023/07/21 02:56:41;;;;;;;7.53;4.90;;;;;19.60;96541.00;;;;4960984;28;20208;-72
2023/07/21 02:59:30;;;;;;;6.50;4.50;;;;;19.60;96544.00;;;;4958767;28;20192;-72
2023/07/21 03:02:19;;;;;;;5.37;4.03;;;;;19.60;96560.00;;;;4969731;28;20214;-72
2023/07/21 03:05:09;;;;;;;5.10;4.60;;;;;19.40;96565.00;;;;4965759;28;20223;-72
2023/07/21 03:08:00;;;;;;;6.97;4.80;;;;;19.20;96566.00;;;;4960335;28;20211;-73
2023/07/21 03:10:49;;;;;;;5.97;5.37;;;;;19.80;96571.00;;;;4967211;28;20219;-73
2023/07/21 03:13:38;;;;;;;5.67;3.90;;;;;19.90;96573.00;;;;4956733;28;20231;-72
2023/07/21 03:16:27;;;;;;;6.70;4.73;;;;;20.00;96570.00;;;;4972245;28;20215;-72
2023/07/21 03:19:16;;;;;;;6.57;4.67;;;;;20.00;96554.00;;;;4966320;28;20222;-72
2023/07/21 03:22:05;;;;;;;5.30;4.57;;;;;20.10;96547.00;;;;4961761;28;20712;-72
2023/07/21 03:24:57;;;;;;;6.93;4.57;;;;;19.90;96540.00;;;;4961759;28;20610;-73
2023/07/21 03:27:46;;;;;;;5.40;4.53;;;;;20.00;96534.00;;;;4965033;28;20199;-72
2023/07/21 03:30:35;;;;;;;7.00;4.50;;;;;20.10;96516.00;;;;4961121;28;20890;-73
2023/07/21 03:33:24;;;;;;;6.57;4.93;;;;;20.10;96523.00;;;;4967113;28;20616;-72
2023/07/21 03:36:13;;;;;;;5.10;3.93;;;;;20.10;96530.00;;;;4962089;28;20211;-73
2023/07/21 03:39:02;;;;;;;5.23;4.27;;;;;20.00;96523.00;;;;4959074;28;20199;-72
2023/07/21 03:41:53;;;;;;;6.43;4.20;;;;;19.90;96526.00;;;;4965249;28;20199;-72
2023/07/21 03:44:42;;;;;;;6.17;4.43;;;;;20.00;96538.00;;;;4961089;28;20231;-73
2023/07/21 03:47:31;;;;;;;7.63;4.77;;;;;20.00;96533.00;;;;4963716;28;20215;-73
2023/07/21 03:50:20;;;;;;;6.10;4.23;;;;;19.60;96531.00;;;;4961644;28;20231;-73
2023/07/21 03:53:09;;;;;;;5.83;5.17;;;;;19.30;96522.00;;;;4954873;28;20740;-72
2023/07/21 03:55:59;;;;;;;8.33;5.80;;;;;19.10;96521.00;;;;4972852;28;20199;-72
2023/07/21 03:58:50;;;;;;;8.73;5.00;;;;;19.30;96535.00;;;;4969246;28;20211;-72
2023/07/21 04:01:39;;;;;;;5.90;4.53;;;;;19.50;96523.00;;;;4956719;28;20252;-72
2023/07/21 04:04:32;;;;;;;5.17;4.63;;;;;19.70;96527.00;;;;4962490;28;20234;-72
2023/07/21 04:07:22;;;;;;;6.70;5.10;;;;;19.80;96528.00;;;;4968540;28;20254;-72
2023/07/21 04:10:11;;;;;;;5.17;4.53;;;;;20.00;96535.00;;;;4961880;28;20238;-72
2023/07/21 04:13:00;;;;;;;6.90;5.03;;;;;20.10;96531.00;;;;4964916;28;20219;-72
2023/07/21 04:15:52;;;;;;;5.63;4.80;;;;;20.10;96531.00;;;;4963920;28;20199;-72
2023/07/21 04:18:41;;;;;;;7.50;4.77;;;;;20.20;96535.00;;;;4959085;28;20575;-72
2023/07/21 04:21:30;;;;;;;5.60;4.93;;;;;20.30;96541.00;;;;4969021;28;20203;-72
2023/07/21 04:24:19;;;;;;;8.77;5.10;;;;;20.20;96539.00;;;;4984508;23;20225;-87
2023/07/21 04:27:09;;;;;;;7.03;4.63;;;;;19.90;96549.00;;;;4998158;28;20667;-87
2023/07/21 04:29:59;;;;;;;7.77;5.00;;;;;19.70;96557.00;;;;4989376;28;20199;-87
2023/07/21 04:32:49;;;;;;;4.20;3.77;;;;;19.70;96559.00;;;;4987729;28;20210;-88
2023/07/21 04:35:43;;;;;;;4.33;3.93;;;;;20.00;96565.00;;;;4990464;28;20233;-87
2023/07/21 04:38:33;;;;;;;7.27;4.50;;;;;19.80;96559.00;;;;4988881;28;20302;-87
2023/07/21 04:41:22;;;;;;;7.67;4.60;;;;;19.80;96568.00;;;;4999979;28;20303;-87
2023/07/21 04:44:11;;;;;;;6.20;4.57;;;;;20.00;96565.00;;;;4989590;28;20225;-88
2023/07/21 04:47:00;;;;;;;5.83;4.47;;;;;20.20;96554.00;;;;4989156;28;20202;-88
2023/07/21 04:49:50;;;;;;;6.90;4.73;;;;;20.30;96565.00;;;;4986798;28;20667;-87
2023/07/21 04:52:39;;;;;;;6.03;4.97;;;;;20.50;96568.00;;;;4984492;28;20669;-87
2023/07/21 04:55:28;;;;;;;5.87;4.23;;;;;20.40;96572.00;;;;4988260;28;20230;-88
2023/07/21 04:58:17;;;;;;;5.87;4.63;;;;;20.40;96560.00;;;;4990488;28;20206;-87
2023/07/21 05:01:06;;;;;;;7.43;4.87;;;;;20.60;96563.00;;;;4988682;28;20591;-88
2023/07/21 05:03:56;;;;;;;7.47;4.53;;;;;20.90;96546.00;;;;4989652;28;20579;-87
2023/07/21 05:06:48;;;;;;;5.47;3.63;;;;;21.00;96543.00;;;;4986320;28;20333;-88
2023/07/21 05:09:37;;;;;;;6.80;5.13;;;;;21.20;96549.00;;;;4987561;28;20198;-87
2023/07/21 05:12:26;;;;;;;5.30;4.27;;;;;21.30;96556.00;;;;4987596;28;20234;-87
2023/07/21 05:15:15;;;;;;;4.83;4.27;;;;;21.30;96553.00;;;;4989745;28;20222;-87
2023/07/21 05:18:05;;;;;;;5.50;4.70;;;;;21.50;96554.00;;;;4988687;28;20209;-88
2023/07/21 05:20:54;;;;;;;4.70;4.20;;;;;21.60;96553.00;;;;4992965;28;20202;-87
2023/07/21 05:23:44;;;;;;;5.70;4.90;;;;;21.60;96553.00;;;;4995937;28;20210;-88
2023/07/21 05:26:36;;;;;;;9.20;4.17;;;;;21.80;96558.00;;;;4990072;28;20223;-87
2023/07/21 05:29:25;;;;;;;6.23;4.87;;;;;21.80;96558.00;;;;4988677;28;20217;-88
2023/07/21 05:32:15;;;;;;;7.37;4.43;;;;;21.80;96560.00;;;;4988874;28;20703;-87
2023/07/21 05:35:08;;;;;;;5.73;4.37;;;;;21.70;96560.00;;;;4987449;28;20601;-87
2023/07/21 05:37:57;;;;;;;5.10;4.60;;;;;21.70;96555.00;;;;4991123;28;20667;-88
2023/07/21 05:40:57;;;;;;;5.70;4.13;;;;;21.70;96557.00;;;;4989107;28;20203;-88
2023/07/21 05:43:46;;;;;;;5.83;4.27;;;;;21.80;96557.00;;;;4983363;28;20194;-87
2023/07/21 05:46:38;;;;;;;5.13;3.73;;;;;21.80;96545.00;;;;4988106;28;20222;-88
2023/07/21 05:49:28;;;;;;;9.67;4.00;;;;;21.80;96550.00;;;;4987278;28;20587;-88
2023/07/21 05:52:17;;;;;;;6.03;4.13;;;;;21.70;96553.00;;;;4986636;28;20603;-88
2023/07/21 05:55:06;;;;;;;6.67;3.67;;;;;21.70;96548.00;;;;4989158;28;20230;-87
2023/07/21 05:57:57;;;;;;;9.73;3.97;;;;;21.60;96541.00;;;;4991986;28;20205;-87
2023/07/21 06:00:46;;;;;;;4.10;3.70;;;;;21.60;96546.00;;;;4992326;28;20202;-89
2023/07/21 06:03:36;;;;;;;4.60;3.80;;;;;21.30;96534.00;;;;4991848;28;20229;-88
2023/07/21 06:06:25;;;;;;;16.43;6.87;;;;;21.30;96542.00;;;;4991395;28;20228;-88
2023/07/21 06:09:14;;;;;;;5.63;3.83;;;;;21.10;96532.00;;;;4990407;28;20687;-88
2023/07/21 06:12:04;;;;;;;6.30;4.10;;;;;20.90;96541.00;;;;4991843;28;20230;-88
2023/07/21 06:14:54;;;;;;;6.70;4.80;;;;;20.90;96539.00;;;;4990276;28;20236;-88
2023/07/21 06:17:44;;;;;;;10.10;4.53;;;;;21.10;96540.00;;;;4992376;28;20207;-88
2023/07/21 06:20:33;;;;;;;5.57;4.60;;;;;21.20;96540.00;;;;4989161;28;20207;-88
2023/07/21 06:23:23;;;;;;;6.33;5.33;;;;;21.10;96537.00;;;;4997686;28;20203;-88
2023/07/21 06:26:12;;;;;;;5.00;4.53;;;;;21.00;96530.00;;;;4995223;28;20238;-88
2023/07/21 06:29:01;;;;;;;5.80;4.87;;;;;21.00;96535.00;;;;4988234;28;20207;-88
2023/07/21 06:31:53;;;;;;;4.97;4.57;;;;;21.10;96527.00;;;;4988534;28;20223;-87
2023/07/21 06:34:42;;;;;;;7.83;5.40;;;;;21.20;96528.00;;;;4992809;28;20218;-88
2023/07/21 06:37:31;;;;;;;7.93;5.47;;;;;21.30;96524.00;;;;4989724;28;20218;-89
2023/07/21 06:40:20;;;;;;;5.00;4.60;;;;;21.40;96526.00;;;;4991928;28;20202;-88
2023/07/21 06:43:09;;;;;;;5.17;4.67;;;;;21.40;96531.00;;;;4988434;28;20203;-87
2023/07/21 06:45:59;;;;;;;5.67;5.03;;;;;21.40;96529.00;;;;4991554;28;20223;-87
2023/07/21 06:48:49;;;;;;;5.00;4.60;;;;;21.40;96523.00;;;;4991415;28;20207;-87
2023/07/21 06:51:38;;;;;;;6.03;4.70;;;;;21.50;96519.00;;;;4989484;28;20227;-87
2023/07/21 06:54:29;;;;;;;6.60;5.00;;;;;21.40;96523.00;;;;4989458;28;20210;-88
2023/07/21 06:57:18;;;;;;;8.00;4.60;;;;;21.00;96518.00;;;;4989227;28;20211;-89
2023/07/21 07:00:12;;;;;;;7.60;4.83;;;;;21.10;96531.00;;;;4986307;28;20210;-88
2023/07/21 07:03:01;;;;;;;7.00;5.03;;;;;20.60;96539.00;;;;4987663;28;20187;-86
2023/07/21 07:05:52;;;;;;;6.83;5.40;;;;;20.10;96545.00;;;;4989656;28;20227;-87
2023/07/21 07:08:41;;;;;;;6.60;4.77;;;;;19.70;96572.00;;;;4988790;28;20203;-88
2023/07/21 07:11:30;;;;;;;10.77;5.33;;;;;19.90;96575.00;;;;4989742;28;20199;-88
2023/07/21 07:14:19;;;;;;;9.80;5.37;;;;;20.40;96574.00;;;;4989014;28;20210;-89
2023/07/21 07:17:08;;;;;;;5.63;4.97;;;;;20.70;96560.00;;;;4989889;28;20207;-90
2023/07/21 07:19:58;;;;;;;6.60;4.53;;;;;20.90;96553.00;;;;4987128;28;20206;-89
2023/07/21 07:22:48;;;;;;;8.40;4.87;;;;;20.90;96560.00;;;;4987363;28;20222;-89
2023/07/21 07:25:37;;;;;;;4.23;3.83;;;;;20.90;96559.00;;;;4989083;28;20231;-88
2023/07/21 07:28:26;;;;;;;8.73;4.63;;;;;21.10;96552.00;;;;4990165;28;20213;-89
2023/07/21 07:31:15;;;;;;;10.03;4.60;;;;;21.20;96556.00;;;;4989179;28;20199;-89
2023/07/21 07:34:05;;;;;;;4.80;4.17;;;;;21.30;96557.00;;;;4988730;28;20809;-89
2023/07/21 07:36:54;;;;;;;9.93;4.47;;;;;21.50;96543.00;;;;4982893;28;20202;-89
2023/07/21 07:39:45;;;;;;;7.43;4.10;;;;;21.60;96533.00;;;;4985995;28;20212;-90
2023/07/21 07:42:34;;;;;;;5.67;4.77;;;;;21.80;96515.00;;;;4987628;28;20572;-89
2023/07/21 07:45:23;;;;;;;6.17;4.23;;;;;21.70;96515.00;;;;4989378;28;20230;-89
2023/07/21 07:48:14;;;;;;;6.40;4.00;;;;;21.00;96519.00;;;;4987415;28;20203;-86
2023/07/21 07:51:05;;;;;;;6.43;3.73;;;;;21.20;96521.00;;;;4986907;28;20210;-88
2023/07/21 07:53:54;;;;;;;6.00;3.77;;;;;21.30;96516.00;;;;4988827;28;20231;-88
2023/07/21 07:56:46;;;;;;;4.43;4.00;;;;;21.30;96509.00;;;;4990146;28;20229;-88
2023/07/21 07:59:35;;;;;;;8.37;4.40;;;;;21.20;96503.00;;;;4986097;28;20202;-88
2023/07/21 08:02:24;;;;;;;5.13;3.60;;;;;21.30;96514.00;;;;4983841;28;20206;-89
2023/07/21 08:05:13;;;;;;;7.30;3.60;;;;;21.30;96516.00;;;;4986398;28;20824;-88
2023/07/21 08:08:02;;;;;;;4.27;3.40;;;;;21.40;96504.00;;;;4987637;28;20202;-88
2023/07/21 08:10:51;;;;;;;4.87;3.87;;;;;21.30;96498.00;;;;4987621;28;20203;-88
2023/07/21 08:13:42;;;;;;;5.40;3.63;;;;;21.40;96497.00;;;;4983107;28;20222;-88
2023/07/21 08:16:31;;;;;;;5.30;3.47;;;;;21.40;96493.00;;;;4982866;28;20222;-88
2023/07/21 08:19:21;;;;;;;7.40;3.90;;;;;21.50;96493.00;;;;4983984;28;20199;-88
2023/07/21 08:22:10;;;;;;;4.60;3.20;;;;;21.60;96486.00;;;;4986762;28;20198;-88
2023/07/21 08:24:59;;;;;;;5.20;3.93;;;;;21.70;96490.00;;;;4986663;28;20237;-88
2023/07/21 08:27:48;;;;;;;5.40;3.73;;;;;21.70;96493.00;;;;4987439;28;20584;-89
2023/07/21 08:30:39;;;;;;;6.37;4.10;;;;;21.70;96478.00;;;;4987838;28;20207;-89
2023/07/21 08:33:35;;;;;;;5.63;3.90;;;;;21.50;96478.00;;;;4986186;28;20722;-88
2023/07/21 08:36:24;;;;;;;5.00;3.50;;;;;21.20;96471.00;;;;4989854;28;20710;-87
2023/07/21 08:39:16;;;;;;;4.37;3.57;;;;;21.30;96470.00;;;;4985162;28;20206;-88
2023/07/21 08:42:10;;;;;;;3.70;3.20;;;;;21.30;96467.00;;;;4986684;28;20222;-87
2023/07/21 08:44:59;;;;;;;8.53;3.23;;;;;21.50;96455.00;;;;4989934;28;20234;-88
2023/07/21 08:47:49;;;;;;;3.63;3.23;;;;;21.80;96449.00;;;;4989123;28;20241;-88
2023/07/21 08:50:40;;;;;;;4.87;3.80;;;;;22.00;96447.00;;;;4989687;28;20210;-89
2023/07/21 08:53:29;;;;;;;4.30;3.90;;;;;21.90;96442.00;;;;4990603;28;20225;-88
2023/07/21 08:56:18;;;;;;;4.57;3.27;;;;;22.00;96452.00;;;;4988047;28;20911;-90
2023/07/21 08:59:07;;;;;;;5.57;4.03;;;;;22.20;96455.00;;;;4986977;28;20207;-88
2023/07/21 09:01:57;;;;;;;8.13;3.40;;;;;22.70;96477.00;;;;4991783;28;20611;-89
2023/07/21 09:04:48;;;;;;;3.70;3.07;;;;;22.60;96474.00;;;;4988417;28;20699;-89
2023/07/21 09:07:40;;;;;;;4.27;3.37;;;;;23.20;96476.00;;;;4991570;28;20203;-90
2023/07/21 09:10:31;;;;;;;3.30;3.00;;;;;23.70;96480.00;;;;4988655;28;20824;-89
2023/07/21 09:13:21;;;;;;;3.47;2.93;;;;;24.00;96476.00;;;;4991952;28;20218;-88
2023/07/21 09:16:10;;;;;;;6.17;4.77;;;;;24.10;96473.00;;;;4987830;28;20230;-88
2023/07/21 09:18:59;;;;;;;3.77;2.70;;;;;24.10;96476.00;;;;4983097;28;20208;-88
2023/07/21 09:21:56;;;;;;;4.07;3.77;;;;;24.20;96473.00;;;;4987535;28;20206;-88
2023/07/21 09:24:52;;;;;;;3.27;2.60;;;;;24.60;96475.00;;;;4987122;28;20230;-89
2023/07/21 09:27:41;;;;;;;3.23;2.93;;;;;24.30;96483.00;;;;4987301;28;20210;-88
2023/07/21 09:30:30;;;;;;;4.70;3.13;;;;;23.60;96475.00;;;;4988501;28;20206;-90
2023/07/21 09:33:24;;;;;;;3.73;3.23;;;;;23.80;96459.00;;;;4986743;28;20227;-88
2023/07/21 09:36:15;;;;;;;3.63;2.80;;;;;24.50;96459.00;;;;4986641;28;20239;-89
2023/07/21 09:39:07;;;;;;;3.33;3.03;;;;;24.70;96460.00;;;;4989016;28;20957;-89
2023/07/21 09:41:56;;;;;;;4.80;2.67;;;;;25.20;96460.00;;;;4982980;28;20206;-89
2023/07/21 09:44:45;;;;;;;3.77;2.73;;;;;25.90;96453.00;;;;4982697;28;20225;-90
2023/07/21 09:47:34;;;;;;;5.67;2.63;;;;;26.10;96452.00;;;;4984747;28;20209;-89
2023/07/21 09:50:23;;;;;;;3.23;2.53;;;;;25.90;96448.00;;;;4986506;28;20203;-90
2023/07/21 09:53:13;;;;;;;3.40;3.07;;;;;26.50;96438.00;;;;4988350;28;20222;-90
2023/07/21 09:56:05;;;;;;;2.53;2.33;;;;;27.00;96443.00;;;;4987894;28;20224;-90
2023/07/21 09:58:58;;;;;;;6.03;2.73;;;;;27.30;96430.00;;;;4987577;28;20699;-91
2023/07/21 10:01:48;;;;;;;3.40;2.83;;;;;27.60;96444.00;;;;4986941;28;20210;-91
2023/07/21 10:04:39;;;;;;;2.90;2.20;;;;;26.90;96448.00;;;;4988053;28;20195;-90
2023/07/21 10:07:28;;;;;;;4.73;2.50;;;;;26.90;96441.00;;;;4986185;28;20212;-89
2023/07/21 10:10:18;;;;;;;3.00;2.50;;;;;26.60;96440.00;;;;4988664;28;20214;-89
2023/07/21 10:13:09;;;;;;;3.53;2.40;;;;;27.30;96412.00;;;;4984971;28;20814;-90
2023/07/21 10:16:01;;;;;;;2.07;1.80;;;;;28.00;96419.00;;;;4978422;28;20231;-89
2023/07/21 10:19:06;;;;;;;3.53;2.37;;;;;28.60;96419.00;;;;4989271;28;20220;-90
2023/07/21 10:22:00;;;;;;;3.50;2.77;;;;;27.80;96422.00;;;;4990951;28;20611;-89
2023/07/21 10:24:52;;;;;;;2.93;2.40;;;;;28.10;96401.00;;;;4992845;28;20234;-88
2023/07/21 10:27:41;;;;;;;2.40;2.10;;;;;28.10;96447.00;;;;4986087;28;20259;-88
2023/07/21 10:30:32;;;;;;;5.17;2.60;;;;;27.60;96444.00;;;;4987784;28;20212;-88
2023/07/21 10:33:21;;;;;;;2.97;2.77;;;;;27.50;96442.00;;;;4989738;28;20269;-89
2023/07/21 10:36:14;;;;;;;3.60;1.87;;;;;27.20;96456.00;;;;4988001;28;20231;-87
2023/07/21 10:39:04;;;;;;;3.13;2.83;;;;;26.50;96468.00;;;;4993637;28;20199;-88
2023/07/21 10:41:56;;;;;;;2.90;2.53;;;;;26.30;96466.00;;;;4987662;28;20231;-87
2023/07/21 10:44:49;;;;;;;4.47;2.70;;;;;25.80;96463.00;;;;4991524;28;20211;-87
2023/07/21 10:47:39;;;;;;;2.17;1.97;;;;;25.80;96463.00;;;;4986401;28;20213;-87
2023/07/21 10:50:30;;;;;;;4.00;2.30;;;;;25.50;96467.00;;;;4991931;28;20666;-87
2023/07/21 10:53:19;;;;;;;3.80;2.37;;;;;25.40;96461.00;;;;4998094;28;20224;-87
2023/07/21 10:56:08;;;;;;;2.80;2.60;;;;;25.30;96462.00;;;;4992361;28;20223;-88
2023/07/21 10:58:58;;;;;;;4.10;2.53;;;;;25.40;96465.00;;;;4986504;28;20199;-87
2023/07/21 11:01:49;;;;;;;3.00;2.33;;;;;25.40;96454.00;;;;4984514;28;20210;-86
2023/07/21 11:04:41;;;;;;;3.70;2.97;;;;;25.50;96461.00;;;;4986284;28;20204;-88
2023/07/21 11:07:30;;;;;;;2.80;2.60;;;;;25.40;96457.00;;;;4985949;28;20200;-87
2023/07/21 11:10:19;;;;;;;2.57;2.03;;;;;25.40;96454.00;;;;4988688;28;20198;-88
2023/07/21 11:13:08;;;;;;;5.00;2.67;;;;;25.50;96446.00;;;;4985498;28;20207;-89
2023/07/21 11:15:58;;;;;;;3.10;2.80;;;;;25.70;96424.00;;;;4989898;28;20235;-88
2023/07/21 11:18:47;;;;;;;2.40;2.20;;;;;26.10;96432.00;;;;4991639;28;20211;-87
2023/07/21 11:21:40;;;;;;;2.37;2.10;;;;;26.20;96430.00;;;;4989311;28;20214;-88
2023/07/21 11:24:30;;;;;;;2.07;1.90;;;;;25.90;96416.00;;;;4990711;28;20411;-88
2023/07/21 11:27:19;;;;;;;2.53;2.30;;;;;25.10;96419.00;;;;4989554;28;20217;-87
2023/07/21 11:30:10;;;;;;;2.60;2.40;;;;;25.70;96421.00;;;;4988526;28;20214;-87
2023/07/21 11:33:09;;;;;;;2.60;2.20;;;;;25.00;96408.00;;;;4986042;28;20211;-88
2023/07/21 11:35:59;;;;;;;1.70;1.60;;;;;25.00;96408.00;;;;4987869;28;20361;-87
2023/07/21 11:39:01;;;;;;;2.47;2.23;;;;;25.00;96416.00;;;;4990859;28;20199;-88
2023/07/21 11:41:51;;;;;;;3.23;2.30;;;;;25.10;96414.00;;;;4990010;28;20206;-87
2023/07/21 11:44:40;;;;;;;2.87;2.60;;;;;25.20;96417.00;;;;4989731;28;20602;-87
2023/07/21 11:47:32;;;;;;;2.50;2.30;;;;;25.60;96411.00;;;;4989545;28;20218;-88
2023/07/21 11:50:21;;;;;;;2.43;2.23;;;;;25.90;96407.00;;;;4989941;28;20826;-87
2023/07/21 11:53:10;;;;;;;3.20;2.17;;;;;26.30;96400.00;;;;4989154;28;20203;-87
2023/07/21 11:56:01;;;;;;;3.10;2.13;;;;;26.40;96404.00;;;;4984169;28;20218;-87
2023/07/21 11:58:50;;;;;;;2.50;2.10;;;;;26.00;96389.00;;;;4990628;28;20213;-88
2023/07/21 12:01:39;;;;;;;3.63;2.40;;;;;26.10;96391.00;;;;4990948;28;20218;-88
2023/07/21 12:04:28;;;;;;;3.30;2.50;;;;;26.90;96391.00;;;;4990019;28;20214;-87
2023/07/21 12:07:17;;;;;;;2.33;2.13;;;;;27.10;96386.00;;;;4989380;28;20209;-88
2023/07/21 12:10:08;;;;;;;3.13;2.07;;;;;27.00;96385.00;;;;4984121;28;20212;-87
2023/07/21 12:12:58;;;;;;;4.47;2.53;;;;;26.90;96376.00;;;;4988902;28;20211;-89
2023/07/21 12:15:49;;;;;;;2.60;2.23;;;;;27.00;96386.00;;;;4989575;28;20724;-88
2023/07/21 12:18:38;;;;;;;2.10;1.90;;;;;26.50;96397.00;;;;4988196;28;20723;-88
2023/07/21 12:21:27;;;;;;;3.90;2.57;;;;;26.70;96387.00;;;;4982152;28;20205;-87
2023/07/21 12:24:16;;;;;;;4.00;2.40;;;;;26.80;96374.00;;;;4984946;28;20207;-87
2023/07/21 12:27:06;;;;;;;2.40;1.90;;;;;27.30;96355.00;;;;4989083;28;20287;-88
2023/07/21 12:29:56;;;;;;;1.80;1.67;;;;;27.40;96377.00;;;;4984973;28;20208;-88
2023/07/21 12:32:46;;;;;;;4.03;1.87;;;;;27.50;96363.00;;;;4983024;28;20284;-88
2023/07/21 12:35:35;;;;;;;2.07;1.70;;;;;27.30;96360.00;;;;4992186;28;20266;-85
2023/07/21 12:38:24;;;;;;;2.80;1.93;;;;;27.20;96348.00;;;;4990865;28;20198;-88
2023/07/21 12:41:16;;;;;;;2.47;1.80;;;;;27.30;96354.00;;;;4991214;28;20691;-88
2023/07/21 12:44:06;;;;;;;3.07;2.20;;;;;27.10;96365.00;;;;4992303;28;20224;-88
2023/07/21 12:46:57;;;;;;;2.63;2.40;;;;;26.90;96358.00;;;;4985772;28;20717;-88
2023/07/21 12:49:46;;;;;;;2.03;1.87;;;;;27.00;96353.00;;;;4987476;28;20200;-87
2023/07/21 12:52:36;;;;;;;1.83;1.73;;;;;27.10;96343.00;;;;4987309;28;20209;-88
2023/07/21 12:55:25;;;;;;;3.50;2.37;;;;;27.50;96333.00;;;;4987402;28;20233;-88
2023/07/21 12:58:14;;;;;;;4.27;2.30;;;;;27.60;96319.00;;;;4987315;28;20213;-88
2023/07/21 13:01:05;;;;;;;3.17;2.00;;;;;27.50;96316.00;;;;4985666;28;20205;-90
2023/07/21 13:03:55;;;;;;;2.93;2.37;;;;;27.30;96322.00;;;;4985518;28;20742;-89
2023/07/21 13:06:44;;;;;;;2.40;2.20;;;;;27.10;96326.00;;;;4985850;28;20352;-89
2023/07/21 13:09:33;;;;;;;2.57;2.07;;;;;26.90;96317.00;;;;4987493;28;20202;-88
2023/07/21 13:12:22;;;;;;;2.50;2.23;;;;;26.90;96303.00;;;;4989110;28;20690;-87
2023/07/21 13:15:12;;;;;;;2.27;2.07;;;;;27.20;96288.00;;;;4983629;28;20233;-88
2023/07/21 13:18:01;;;;;;;4.53;2.50;;;;;27.20;96278.00;;;;4988308;28;20212;-88
2023/07/21 13:20:52;;;;;;;2.57;2.10;;;;;27.20;96291.00;;;;4987710;28;20681;-88
2023/07/21 13:23:41;;;;;;;2.00;1.80;;;;;27.00;96286.00;;;;4988868;28;20204;-87
2023/07/21 13:26:30;;;;;;;5.20;2.50;;;;;26.70;96276.00;;;;4987462;28;20236;-88
2023/07/21 13:29:19;;;;;;;2.90;2.10;;;;;26.50;96273.00;;;;4986334;28;20213;-89
2023/07/21 13:32:09;;;;;;;2.77;2.17;;;;;26.30;96276.00;;;;4988376;28;20592;-88
2023/07/21 13:34:58;;;;;;;2.80;2.40;;;;;26.00;96279.00;;;;4982868;28;20636;-88
2023/07/21 13:37:49;;;;;;;3.13;2.63;;;;;25.80;96283.00;;;;4983502;28;20214;-88
2023/07/21 13:40:38;;;;;;;3.80;2.63;;;;;25.40;96304.00;;;;4986681;28;20226;-89
2023/07/21 13:43:27;;;;;;;2.93;1.87;;;;;25.30;96333.00;;;;4988392;28;20215;-89
2023/07/21 13:46:17;;;;;;;3.93;2.40;;;;;24.80;96341.00;;;;4989014;28;20218;-88
2023/07/21 13:49:06;;;;;;;2.97;2.50;;;;;24.00;96327.00;;;;4984769;28;20206;-89
2023/07/21 13:51:56;;;;;;;3.40;2.70;;;;;24.00;96348.00;;;;4986646;28;20731;-87
2023/07/21 13:54:46;;;;;;;3.10;2.90;;;;;24.00;96369.00;;;;4988206;28;20233;-88
2023/07/21 13:57:35;;;;;;;10.13;3.37;;;;;23.80;96368.00;;;;4983678;28;20203;-86
2023/07/21 14:00:24;;;;;;;7.33;3.53;;;;;23.10;96373.00;;;;4984288;28;20210;-85
2023/07/21 14:03:13;;;;;;;6.37;3.23;;;;;22.80;96381.00;;;;4987388;28;20206;-85
2023/07/21 14:06:03;;;;;;;5.43;3.67;;;;;22.40;96400.00;;;;4987516;28;20226;-85
2023/07/21 14:08:54;;;;;;;6.80;3.27;;;;;22.10;96396.00;;;;4987821;28;20218;-85